createdAt,value
2018-01-27T00:00:32.683Z,8.60
2018-01-27T00:03:02.062Z,8.60
2018-01-27T00:05:32.204Z,8.60
2018-01-27T00:08:01.560Z,8.60
2018-01-27T00:10:30.926Z,8.60
2018-01-27T00:13:00.297Z,8.60
2018-01-27T00:15:30.437Z,8.50
2018-01-27T00:17:59.792Z,8.50
2018-01-27T00:20:29.149Z,8.50
2018-01-27T00:22:58.557Z,8.50
2018-01-27T00:25:27.909Z,8.50
2018-01-27T00:27:57.259Z,8.40
2018-01-27T00:30:26.632Z,8.30
2018-01-27T00:32:56.754Z,8.10
2018-01-27T00:35:26.917Z,8.10
2018-01-27T00:37:56.276Z,8.10
2018-01-27T00:40:25.636Z,8.00
2018-01-27T00:42:55.013Z,8.10
2018-01-27T00:45:24.415Z,8.10
2018-01-27T00:47:54.730Z,8.10
2018-01-27T00:50:24.115Z,8.10
2018-01-27T00:52:53.455Z,8.10
2018-01-27T00:55:22.804Z,8.10
2018-01-27T00:57:52.951Z,8.20
2018-01-27T01:00:22.283Z,8.20
2018-01-27T01:02:51.622Z,8.20
2018-01-27T01:05:21.761Z,8.30
2018-01-27T01:07:51.166Z,8.20
2018-01-27T01:10:20.515Z,8.20
2018-01-27T01:12:49.883Z,8.30
2018-01-27T01:15:19.257Z,8.20
2018-01-27T01:17:49.366Z,8.30
2018-01-27T01:20:19.511Z,8.30
2018-01-27T01:22:48.867Z,8.30
2018-01-27T01:25:18.224Z,8.30
2018-01-27T01:27:47.793Z,8.30
2018-01-27T01:30:17.151Z,8.30
2018-01-27T01:32:46.503Z,8.30
2018-01-27T01:35:16.660Z,8.30
2018-01-27T01:37:46.024Z,8.30
2018-01-27T01:40:16.936Z,8.30
2018-01-27T01:42:51.838Z,8.30
2018-01-27T01:45:21.393Z,8.40
2018-01-27T01:47:51.499Z,8.40
2018-01-27T01:50:20.887Z,8.40
2018-01-27T01:52:50.234Z,8.40
2018-01-27T01:55:20.355Z,8.30
2018-01-27T01:57:50.684Z,8.30
2018-01-27T02:00:20.032Z,8.20
2018-01-27T02:02:49.367Z,8.20
2018-01-27T02:05:19.498Z,8.20
2018-01-27T02:07:49.616Z,8.20
2018-01-27T02:10:19.747Z,8.10
2018-01-27T02:12:49.101Z,8.10
2018-01-27T02:15:18.463Z,8.10
2018-01-27T02:17:47.837Z,8.10
2018-01-27T02:20:17.968Z,8.10
2018-01-27T02:22:48.294Z,8.00
2018-01-27T02:25:17.664Z,8.10
2018-01-27T02:27:47.235Z,8.00
2018-01-27T02:30:16.571Z,8.10
2018-01-27T02:32:45.963Z,8.10
2018-01-27T02:35:15.322Z,8.10
2018-01-27T02:37:44.668Z,8.10
2018-01-27T02:40:14.046Z,7.90
2018-01-27T02:42:43.573Z,7.80
2018-01-27T02:45:12.918Z,7.80
2018-01-27T02:47:42.273Z,7.80
2018-01-27T02:52:47.072Z,7.60
2018-01-27T02:55:16.418Z,7.60
2018-01-27T02:57:45.755Z,7.60
2018-01-27T03:00:15.890Z,7.70
2018-01-27T03:02:46.107Z,7.70
2018-01-27T03:05:16.221Z,7.80
2018-01-27T03:07:45.600Z,7.80
2018-01-27T03:10:14.993Z,7.90
2018-01-27T03:12:45.143Z,8.00
2018-01-27T03:15:16.007Z,8.10
2018-01-27T03:17:45.389Z,8.00
2018-01-27T03:20:15.487Z,8.10
2018-01-27T03:22:44.863Z,8.10
2018-01-27T03:25:14.211Z,8.10
2018-01-27T03:27:43.554Z,8.10
2018-01-27T03:30:12.921Z,8.10
2018-01-27T03:32:42.254Z,8.10
2018-01-27T03:35:11.625Z,8.00
2018-01-27T03:37:41.012Z,8.00
2018-01-27T03:40:10.934Z,7.90
2018-01-27T03:42:40.304Z,7.90
2018-01-27T03:45:09.650Z,8.00
2018-01-27T03:47:38.994Z,7.90
2018-01-27T03:50:08.382Z,8.00
2018-01-27T03:52:37.736Z,8.00
2018-01-27T03:55:08.048Z,8.10
2018-01-27T03:57:37.405Z,8.10
2018-01-27T04:00:06.747Z,8.20
2018-01-27T04:02:36.112Z,8.20
2018-01-27T04:05:05.455Z,8.10
2018-01-27T04:07:34.850Z,8.10
2018-01-27T04:10:04.213Z,8.10
2018-01-27T04:12:33.582Z,8.10
2018-01-27T04:15:09.616Z,7.90
2018-01-27T04:17:38.965Z,7.90
2018-01-27T04:20:08.309Z,7.90
2018-01-27T04:22:37.675Z,7.80
2018-01-27T04:25:07.030Z,7.70
2018-01-27T04:27:37.334Z,7.80
2018-01-27T04:30:06.691Z,7.90
2018-01-27T04:32:36.055Z,7.80
2018-01-27T04:35:05.447Z,7.90
2018-01-27T04:37:34.793Z,7.90
2018-01-27T04:40:04.125Z,7.90
2018-01-27T04:42:33.530Z,7.90
2018-01-27T04:45:03.721Z,7.90
2018-01-27T04:47:33.136Z,7.90
2018-01-27T04:50:02.493Z,8.00
2018-01-27T04:52:32.630Z,8.00
2018-01-27T04:55:02.077Z,7.90
2018-01-27T04:57:31.450Z,8.00
2018-01-27T05:00:00.809Z,8.00
2018-01-27T05:02:30.178Z,8.00
2018-01-27T05:04:59.602Z,7.90
2018-01-27T05:07:28.987Z,7.90
2018-01-27T05:09:59.096Z,7.90
2018-01-27T05:12:28.479Z,7.90
2018-01-27T05:14:57.837Z,7.90
2018-01-27T05:17:28.009Z,7.90
2018-01-27T05:19:57.368Z,7.90
2018-01-27T05:22:26.723Z,7.90
2018-01-27T05:24:56.085Z,7.80
2018-01-27T05:27:26.193Z,7.90
2018-01-27T05:29:55.584Z,7.80
2018-01-27T05:32:24.965Z,7.90
2018-01-27T05:34:54.326Z,7.90
2018-01-27T05:37:23.691Z,7.90
2018-01-27T05:39:53.083Z,7.90
2018-01-27T05:42:22.426Z,7.90
2018-01-27T05:44:51.796Z,8.00
2018-01-27T05:47:21.134Z,8.00
2018-01-27T05:49:50.472Z,7.90
2018-01-27T05:52:19.846Z,8.00
2018-01-27T05:54:49.180Z,7.90
2018-01-27T05:57:18.567Z,8.00
2018-01-27T05:59:47.911Z,7.90
2018-01-27T06:02:17.770Z,7.90
2018-01-27T06:04:47.172Z,7.90
2018-01-27T06:07:16.522Z,7.80
2018-01-27T06:09:45.871Z,7.90
2018-01-27T06:12:15.377Z,7.90
2018-01-27T06:14:44.762Z,7.90
2018-01-27T06:17:14.894Z,7.90
2018-01-27T06:19:44.226Z,7.90
2018-01-27T06:22:13.593Z,7.80
2018-01-27T06:24:42.963Z,7.80
2018-01-27T06:27:12.341Z,7.70
2018-01-27T06:29:41.749Z,7.80
2018-01-27T06:32:11.077Z,7.80
2018-01-27T06:34:41.238Z,7.70
2018-01-27T06:37:10.602Z,7.70
2018-01-27T06:39:40.749Z,7.70
2018-01-27T06:42:10.098Z,7.70
2018-01-27T06:44:39.470Z,7.80
2018-01-27T06:47:08.830Z,7.90
2018-01-27T06:49:38.979Z,7.90
2018-01-27T06:52:08.940Z,7.90
2018-01-27T06:54:38.296Z,8.00
2018-01-27T06:57:07.664Z,8.10
2018-01-27T06:59:37.847Z,8.20
2018-01-27T07:02:07.190Z,8.20
2018-01-27T07:04:36.543Z,8.40
2018-01-27T07:07:05.890Z,8.40
2018-01-27T07:09:35.256Z,8.40
2018-01-27T07:12:04.609Z,8.50
2018-01-27T07:14:33.953Z,8.50
2018-01-27T07:17:03.333Z,8.50
2018-01-27T07:19:32.899Z,8.50
2018-01-27T07:22:03.012Z,8.40
2018-01-27T07:24:32.377Z,8.40
2018-01-27T07:27:01.750Z,8.40
2018-01-27T07:29:31.094Z,8.30
2018-01-27T07:32:00.469Z,8.20
2018-01-27T07:34:30.408Z,8.20
2018-01-27T07:37:00.567Z,8.20
2018-01-27T07:39:30.688Z,8.10
2018-01-27T07:42:00.839Z,8.10
2018-01-27T07:44:30.189Z,8.10
2018-01-27T07:46:59.539Z,8.10
2018-01-27T07:49:28.908Z,8.00
2018-01-27T07:51:59.016Z,8.00
2018-01-27T07:54:28.396Z,8.00
2018-01-27T07:56:57.942Z,7.90
2018-01-27T07:59:28.047Z,7.80
2018-01-27T08:01:57.426Z,7.80
2018-01-27T08:04:26.771Z,7.80
2018-01-27T08:06:56.918Z,7.90
2018-01-27T08:09:26.305Z,7.90
2018-01-27T08:11:56.457Z,8.00
2018-01-27T08:14:25.867Z,7.90
2018-01-27T08:16:55.223Z,7.90
2018-01-27T08:19:24.590Z,7.80
2018-01-27T08:21:54.005Z,7.70
2018-01-27T08:24:23.364Z,7.70
2018-01-27T08:26:52.736Z,7.70
2018-01-27T08:29:22.109Z,7.70
2018-01-27T08:31:51.461Z,7.70
2018-01-27T08:34:20.805Z,7.80
2018-01-27T08:36:50.419Z,7.80
2018-01-27T08:39:20.544Z,7.70
2018-01-27T08:41:50.701Z,7.70
2018-01-27T08:44:20.113Z,7.70
2018-01-27T08:46:49.494Z,7.70
2018-01-27T08:49:18.852Z,7.60
2018-01-27T08:51:48.255Z,7.50
2018-01-27T08:54:17.673Z,7.50
2018-01-27T08:56:47.820Z,7.50
2018-01-27T08:59:17.935Z,7.50
2018-01-27T09:01:48.136Z,7.40
2018-01-27T09:04:17.516Z,7.40
2018-01-27T09:06:47.682Z,7.40
2018-01-27T09:09:17.054Z,7.40
2018-01-27T09:11:46.423Z,7.40
2018-01-27T09:14:15.790Z,7.50
2018-01-27T09:16:45.197Z,7.50
2018-01-27T09:19:14.595Z,7.50
2018-01-27T09:21:43.982Z,7.50
2018-01-27T09:24:14.104Z,7.50
2018-01-27T09:26:44.263Z,7.40
2018-01-27T09:29:13.606Z,7.40
2018-01-27T09:31:42.966Z,7.50
2018-01-27T09:34:12.436Z,7.60
2018-01-27T09:36:41.833Z,7.50
2018-01-27T09:39:11.240Z,7.60
2018-01-27T09:41:40.720Z,7.60
2018-01-27T09:44:10.166Z,7.60
2018-01-27T09:46:39.587Z,7.70
2018-01-27T09:49:08.975Z,7.70
2018-01-27T09:51:39.036Z,7.80
2018-01-27T09:54:09.703Z,7.90
2018-01-27T09:56:39.261Z,8.00
2018-01-27T09:59:08.700Z,8.00
2018-01-27T10:01:38.819Z,8.20
2018-01-27T10:04:08.201Z,8.20
2018-01-27T10:06:37.560Z,8.20
2018-01-27T10:09:06.936Z,8.30
2018-01-27T10:11:36.346Z,8.30
2018-01-27T10:14:06.486Z,8.30
2018-01-27T10:16:35.843Z,8.30
2018-01-27T10:19:05.464Z,8.30
2018-01-27T10:21:35.608Z,8.40
2018-01-27T10:24:04.976Z,8.30
2018-01-27T10:26:34.446Z,8.40
2018-01-27T10:29:04.627Z,8.60
2018-01-27T10:31:33.971Z,8.60
2018-01-27T10:34:03.449Z,8.50
2018-01-27T10:36:32.817Z,8.50
2018-01-27T10:39:02.168Z,8.40
2018-01-27T10:41:31.569Z,8.40
2018-01-27T10:44:01.057Z,8.30
2018-01-27T10:46:30.424Z,8.30
2018-01-27T10:48:59.793Z,8.30
2018-01-27T10:51:29.164Z,8.20
2018-01-27T10:53:58.526Z,8.20
2018-01-27T10:56:28.641Z,8.20
2018-01-27T10:58:58.012Z,8.30
2018-01-27T11:01:27.393Z,8.30
2018-01-27T11:03:56.738Z,8.20
2018-01-27T11:06:26.108Z,8.20
2018-01-27T11:08:55.463Z,8.20
2018-01-27T11:11:25.571Z,8.20
2018-01-27T11:13:54.929Z,8.20
2018-01-27T11:16:24.297Z,8.10
2018-01-27T11:18:54.425Z,8.00
2018-01-27T11:21:23.811Z,8.00
2018-01-27T11:23:53.960Z,7.90
2018-01-27T11:26:23.335Z,7.90
2018-01-27T11:28:53.612Z,8.10
2018-01-27T11:31:22.974Z,8.10
2018-01-27T11:33:52.324Z,8.10
2018-01-27T11:36:21.729Z,8.30
2018-01-27T11:38:51.080Z,8.30
2018-01-27T11:41:20.454Z,8.30
2018-01-27T11:43:49.808Z,8.40
2018-01-27T11:46:19.168Z,8.30
2018-01-27T11:48:49.278Z,8.40
2018-01-27T11:51:18.624Z,8.40
2018-01-27T11:53:47.986Z,8.50
2018-01-27T11:56:18.113Z,8.60
2018-01-27T11:58:48.252Z,8.60
2018-01-27T12:01:17.645Z,8.60
2018-01-27T12:03:47.782Z,8.80
2018-01-27T12:06:17.140Z,8.80
2018-01-27T12:08:46.495Z,8.90
2018-01-27T12:11:15.878Z,8.90
2018-01-27T12:13:45.235Z,8.80
2018-01-27T12:16:14.598Z,8.90
2018-01-27T12:18:43.967Z,8.80
2018-01-27T12:21:14.090Z,8.60
2018-01-27T12:23:44.376Z,8.60
2018-01-27T12:26:14.347Z,8.60
2018-01-27T12:28:43.932Z,8.60
2018-01-27T12:31:14.044Z,8.60
2018-01-27T12:33:43.398Z,8.60
2018-01-27T12:36:12.786Z,8.70
2018-01-27T12:38:42.202Z,8.70
2018-01-27T12:41:11.527Z,8.60
2018-01-27T12:43:41.836Z,8.60
2018-01-27T12:46:11.205Z,8.40
2018-01-27T12:48:40.579Z,8.30
2018-01-27T12:51:10.686Z,8.20
2018-01-27T12:53:40.047Z,8.20
2018-01-27T12:56:09.430Z,8.10
2018-01-27T12:58:38.783Z,8.20
2018-01-27T13:01:08.557Z,8.20
2018-01-27T13:03:38.672Z,8.30
2018-01-27T13:06:08.046Z,8.30
2018-01-27T13:08:38.164Z,8.20
2018-01-27T13:11:08.353Z,8.20
2018-01-27T13:13:37.710Z,8.20
2018-01-27T13:16:07.080Z,8.10
2018-01-27T13:18:36.458Z,8.20
2018-01-27T13:21:05.808Z,8.10
2018-01-27T13:23:35.188Z,8.20
2018-01-27T13:26:04.561Z,8.20
2018-01-27T13:28:33.923Z,8.30
2018-01-27T13:31:03.290Z,8.20
2018-01-27T13:33:32.700Z,8.30
2018-01-27T13:36:03.006Z,8.30
2018-01-27T13:38:32.423Z,8.40
2018-01-27T13:41:01.804Z,8.40
2018-01-27T13:43:31.164Z,8.50
2018-01-27T13:46:00.530Z,8.50
2018-01-27T13:48:30.692Z,8.60
2018-01-27T13:51:00.064Z,8.60
2018-01-27T13:53:29.430Z,8.60
2018-01-27T13:55:58.781Z,8.60
2018-01-27T13:58:28.275Z,8.60
2018-01-27T14:00:58.335Z,8.70
2018-01-27T14:03:27.714Z,8.70
2018-01-27T14:05:57.100Z,8.70
2018-01-27T14:08:27.295Z,8.90
2018-01-27T14:10:56.743Z,8.80
2018-01-27T14:13:26.110Z,8.90
2018-01-27T14:15:55.502Z,8.80
2018-01-27T14:18:24.847Z,8.90
2018-01-27T14:20:54.232Z,8.90
2018-01-27T14:23:24.352Z,9.00
2018-01-27T14:25:54.491Z,9.10
2018-01-27T14:28:23.870Z,9.00
2018-01-27T14:30:53.239Z,9.00
2018-01-27T14:33:22.599Z,9.00
2018-01-27T14:35:52.064Z,9.00
2018-01-27T14:38:22.196Z,8.90
2018-01-27T14:40:51.589Z,8.90
2018-01-27T14:43:21.155Z,8.80
2018-01-27T14:45:50.513Z,8.70
2018-01-27T14:48:20.679Z,8.60
2018-01-27T14:50:50.052Z,8.60
2018-01-27T14:53:19.406Z,8.60
2018-01-27T14:55:48.772Z,8.50
2018-01-27T14:58:18.149Z,8.40
2018-01-27T15:00:47.517Z,8.40
2018-01-27T15:03:16.879Z,8.40
2018-01-27T15:05:46.254Z,8.30
2018-01-27T15:08:16.402Z,8.40
2018-01-27T15:10:45.799Z,8.40
2018-01-27T15:13:15.199Z,8.50
2018-01-27T15:15:44.566Z,8.50
2018-01-27T15:18:14.719Z,8.20
2018-01-27T15:20:44.079Z,8.20
2018-01-27T15:23:13.426Z,8.00
2018-01-27T15:25:42.848Z,7.90
2018-01-27T15:28:12.228Z,7.90
2018-01-27T15:30:41.571Z,8.00
2018-01-27T15:33:10.944Z,8.00
2018-01-27T15:35:40.307Z,7.90
2018-01-27T15:38:09.682Z,7.90
2018-01-27T15:40:39.036Z,7.80
2018-01-27T15:43:08.392Z,7.80
2018-01-27T15:45:37.764Z,7.80
2018-01-27T15:48:07.126Z,7.80
2018-01-27T15:50:36.510Z,7.80
2018-01-27T15:53:06.645Z,7.80
2018-01-27T15:55:35.991Z,7.80
2018-01-27T15:58:05.359Z,7.80
2018-01-27T16:00:34.727Z,7.80
2018-01-27T16:03:04.875Z,7.70
2018-01-27T16:05:34.249Z,7.70
2018-01-27T16:08:04.541Z,7.70
2018-01-27T16:10:33.901Z,7.70
2018-01-27T16:13:03.255Z,7.70
2018-01-27T16:15:32.610Z,7.70
2018-01-27T16:18:01.964Z,7.70
2018-01-27T16:20:31.333Z,7.70
2018-01-27T16:23:00.703Z,7.70
2018-01-27T16:25:30.096Z,7.70
2018-01-27T16:28:00.229Z,7.70
2018-01-27T16:30:29.599Z,7.70
2018-01-27T16:32:58.952Z,7.80
2018-01-27T16:35:28.327Z,7.80
2018-01-27T16:37:58.455Z,8.00
2018-01-27T16:40:27.820Z,7.90
2018-01-27T16:42:57.180Z,8.00
2018-01-27T16:45:26.520Z,8.10
2018-01-27T16:47:55.912Z,8.10
2018-01-27T16:50:25.309Z,8.20
2018-01-27T16:52:54.677Z,8.20
2018-01-27T16:55:24.029Z,8.30
2018-01-27T16:57:53.382Z,8.30
2018-01-27T17:00:22.727Z,8.30
2018-01-27T17:02:52.100Z,8.30
2018-01-27T17:05:21.451Z,8.20
2018-01-27T17:07:50.836Z,8.20
2018-01-27T17:10:20.198Z,8.20
2018-01-27T17:12:49.558Z,8.20
2018-01-27T17:15:18.922Z,8.20
2018-01-27T17:17:48.268Z,8.10
2018-01-27T17:20:18.422Z,8.00
2018-01-27T17:22:47.776Z,7.90
2018-01-27T17:25:17.195Z,7.90
2018-01-27T17:27:47.333Z,7.80
2018-01-27T17:30:16.691Z,7.80
2018-01-27T17:32:46.073Z,7.70
2018-01-27T17:35:15.418Z,7.70
2018-01-27T17:37:45.539Z,7.60
2018-01-27T17:40:15.664Z,7.50
2018-01-27T17:42:45.012Z,7.50
2018-01-27T17:45:14.367Z,7.50
2018-01-27T17:47:44.488Z,7.30
2018-01-27T17:50:14.750Z,7.30
2018-01-27T17:52:44.114Z,7.30
2018-01-27T17:55:14.228Z,7.20
2018-01-27T17:57:44.373Z,7.20
2018-01-27T18:00:13.717Z,7.10
2018-01-27T18:02:43.072Z,7.20
2018-01-27T18:05:12.449Z,7.10
2018-01-27T18:07:42.584Z,7.00
2018-01-27T18:10:11.950Z,7.00
2018-01-27T18:12:41.309Z,7.00
2018-01-27T18:15:10.686Z,6.90
2018-01-27T18:17:40.054Z,6.90
2018-01-27T18:20:09.413Z,6.80
2018-01-27T18:22:38.758Z,6.80
2018-01-27T18:25:08.132Z,6.70
2018-01-27T18:27:37.496Z,6.70
2018-01-27T18:30:07.617Z,6.80
2018-01-27T18:32:36.977Z,6.70
2018-01-27T18:35:06.353Z,6.80
2018-01-27T18:37:35.768Z,6.80
2018-01-27T18:40:05.319Z,6.80
2018-01-27T18:42:34.703Z,6.80
2018-01-27T18:45:04.166Z,6.80
2018-01-27T18:47:33.539Z,6.80
2018-01-27T18:50:02.953Z,6.80
2018-01-27T18:52:32.334Z,6.90
2018-01-27T18:55:02.520Z,6.80
2018-01-27T18:57:31.892Z,6.80
2018-01-27T19:00:01.300Z,6.90
2018-01-27T19:02:30.708Z,7.00
2018-01-27T19:05:00.722Z,7.20
2018-01-27T19:07:30.072Z,7.40
2018-01-27T19:10:00.228Z,7.60
2018-01-27T19:12:30.199Z,7.60
2018-01-27T19:14:59.557Z,7.70
2018-01-27T19:17:28.925Z,7.80
2018-01-27T19:19:59.090Z,7.90
2018-01-27T19:22:28.434Z,7.90
2018-01-27T19:24:57.869Z,7.90
2018-01-27T19:27:27.257Z,7.90
2018-01-27T19:29:56.623Z,7.80
2018-01-27T19:32:25.994Z,7.70
2018-01-27T19:34:55.345Z,7.80
2018-01-27T19:37:25.489Z,7.70
2018-01-27T19:39:54.863Z,7.70
2018-01-27T19:42:25.208Z,7.70
2018-01-27T19:44:55.353Z,7.70
2018-01-27T19:47:24.741Z,7.70
2018-01-27T19:49:54.121Z,7.70
2018-01-27T19:52:24.241Z,7.70
2018-01-27T19:54:54.366Z,7.70
2018-01-27T19:57:24.508Z,7.70
2018-01-27T19:59:53.928Z,7.70
2018-01-27T20:02:23.275Z,7.70
2018-01-27T20:04:52.639Z,7.70
2018-01-27T20:07:22.018Z,7.80
2018-01-27T20:09:51.362Z,7.80
2018-01-27T20:12:20.727Z,7.80
2018-01-27T20:14:50.125Z,7.80
2018-01-27T20:17:19.484Z,7.70
2018-01-27T20:19:48.841Z,7.70
2018-01-27T20:22:18.239Z,7.60
2018-01-27T20:24:47.597Z,7.50
2018-01-27T20:27:16.961Z,7.50
2018-01-27T20:29:46.317Z,7.40
2018-01-27T20:32:16.464Z,7.40
2018-01-27T20:34:45.821Z,7.40
2018-01-27T20:37:15.179Z,7.30
2018-01-27T20:39:44.555Z,7.30
2018-01-27T20:42:13.897Z,7.40
2018-01-27T20:44:43.248Z,7.40
2018-01-27T20:47:12.608Z,7.40
2018-01-27T20:49:41.958Z,7.40
2018-01-27T20:52:11.364Z,7.40
2018-01-27T20:54:40.721Z,7.40
2018-01-27T20:57:10.099Z,7.30
2018-01-27T20:59:39.471Z,7.30
2018-01-27T21:02:09.712Z,7.20
2018-01-27T21:04:39.077Z,7.20
2018-01-27T21:07:08.461Z,7.20
2018-01-27T21:09:38.252Z,7.20
2018-01-27T21:12:08.379Z,7.40
2018-01-27T21:14:37.752Z,7.40
2018-01-27T21:17:07.145Z,7.50
2018-01-27T21:19:36.494Z,7.50
2018-01-27T21:22:05.840Z,7.40
2018-01-27T21:24:35.208Z,7.40
2018-01-27T21:27:04.544Z,7.40
2018-01-27T21:29:33.929Z,7.40
2018-01-27T21:32:04.556Z,7.40
2018-01-27T21:34:34.683Z,7.40
2018-01-27T21:37:04.822Z,7.30
2018-01-27T21:39:34.190Z,7.30
2018-01-27T21:42:03.538Z,7.30
2018-01-27T21:44:32.915Z,7.30
2018-01-27T21:47:02.272Z,7.30
2018-01-27T21:49:31.637Z,7.30
2018-01-27T21:52:01.011Z,7.20
2018-01-27T21:54:30.372Z,7.20
2018-01-27T21:56:59.716Z,7.20
2018-01-27T21:59:29.106Z,7.10
2018-01-27T22:01:59.210Z,7.00
2018-01-27T22:04:28.583Z,7.00
2018-01-27T22:06:57.958Z,6.80
2018-01-27T22:09:27.311Z,6.80
2018-01-27T22:11:56.671Z,6.70
2018-01-27T22:14:26.025Z,6.70
2018-01-27T22:16:55.403Z,6.60
2018-01-27T22:19:25.265Z,6.50
2018-01-27T22:21:54.645Z,6.60
2018-01-27T22:24:24.023Z,6.50
2018-01-27T22:26:53.376Z,6.50
2018-01-27T22:29:22.741Z,6.60
2018-01-27T22:31:52.108Z,6.60
2018-01-27T22:34:21.477Z,6.60
2018-01-27T22:36:50.831Z,6.60
2018-01-27T22:39:20.210Z,6.70
2018-01-27T22:41:49.555Z,6.70
2018-01-27T22:44:18.926Z,6.70
2018-01-27T22:46:48.295Z,6.70
2018-01-27T22:49:17.647Z,6.70
2018-01-27T22:51:47.000Z,6.70
2018-01-27T22:54:16.371Z,6.70
2018-01-27T22:56:46.509Z,6.70
2018-01-27T22:59:15.857Z,6.70
2018-01-27T23:01:45.226Z,6.70
2018-01-27T23:04:14.583Z,6.70
2018-01-27T23:06:43.943Z,6.60
2018-01-27T23:09:13.321Z,6.60
2018-01-27T23:11:42.685Z,6.50
2018-01-27T23:14:12.051Z,6.50
2018-01-27T23:16:41.413Z,6.50
2018-01-27T23:19:11.543Z,6.50
2018-01-27T23:21:40.922Z,6.50
2018-01-27T23:24:10.282Z,6.40
2018-01-27T23:26:39.645Z,6.40
2018-01-27T23:29:09.018Z,6.30
2018-01-27T23:31:38.377Z,6.30
2018-01-27T23:34:07.718Z,6.40
2018-01-27T23:36:37.081Z,6.40
2018-01-27T23:39:06.431Z,6.40
2018-01-27T23:41:35.777Z,6.40
2018-01-27T23:44:05.140Z,6.30
2018-01-27T23:46:35.291Z,6.30
2018-01-27T23:49:04.654Z,6.30
2018-01-27T23:51:34.039Z,6.30
2018-01-27T23:54:03.391Z,6.30
2018-01-27T23:56:32.744Z,6.30
2018-01-27T23:59:02.126Z,6.30
